createdAt,value
2022-12-16T00:00:22.923Z,71.90
2022-12-16T00:04:26.639Z,72.14
2022-12-16T00:08:32.321Z,72.15
2022-12-16T00:12:35.415Z,72.20
2022-12-16T00:16:38.858Z,72.33
2022-12-16T00:20:46.153Z,71.82
2022-12-16T00:24:50.710Z,71.74
2022-12-16T00:28:54.137Z,72.31
2022-12-16T00:32:57.922Z,71.66
2022-12-16T00:37:01.331Z,71.19
2022-12-16T00:41:06.128Z,71.74
2022-12-16T00:45:10.131Z,71.38
2022-12-16T00:49:13.179Z,71.74
2022-12-16T00:53:16.704Z,71.26
2022-12-16T00:57:21.465Z,71.00
2022-12-16T01:01:25.130Z,71.33
2022-12-16T01:05:28.349Z,70.98
2022-12-16T01:09:31.702Z,71.44
2022-12-16T01:13:36.436Z,71.36
2022-12-16T01:17:39.917Z,70.99
2022-12-16T01:21:43.051Z,71.48
2022-12-16T01:25:46.417Z,71.23
2022-12-16T01:29:51.728Z,71.66
2022-12-16T01:33:55.586Z,70.99
2022-12-16T01:38:01.310Z,71.18
2022-12-16T01:42:04.834Z,71.19
2022-12-16T01:46:15.450Z,71.66
2022-12-16T01:50:20.530Z,71.80
2022-12-16T01:54:27.942Z,71.25
2022-12-16T01:58:35.042Z,71.21
2022-12-16T02:02:39.976Z,71.47
2022-12-16T02:06:43.139Z,71.40
2022-12-16T02:11:01.857Z,71.49
2022-12-16T02:15:25.343Z,71.93
2022-12-16T02:20:05.337Z,71.29
2022-12-16T02:24:52.950Z,71.75
2022-12-16T02:29:22.786Z,70.88
2022-12-16T02:33:47.680Z,71.24
2022-12-16T02:37:58.501Z,70.45
2022-12-16T02:42:08.623Z,70.72
2022-12-16T02:46:12.412Z,70.67
2022-12-16T02:50:23.617Z,71.28
2022-12-16T02:54:28.412Z,70.29
2022-12-16T02:58:41.000Z,70.39
2022-12-16T03:02:49.796Z,70.63
2022-12-16T03:06:56.818Z,70.68
2022-12-16T03:11:04.167Z,70.95
2022-12-16T03:15:09.487Z,70.97
2022-12-16T03:19:14.030Z,71.13
2022-12-16T03:23:23.387Z,71.59
2022-12-16T03:27:30.357Z,71.00
2022-12-16T03:31:42.200Z,71.14
2022-12-16T03:35:51.929Z,71.46
2022-12-16T03:40:02.605Z,70.99
2022-12-16T03:44:06.231Z,71.12
2022-12-16T03:48:11.328Z,71.56
2022-12-16T03:52:14.419Z,71.91
2022-12-16T03:56:19.066Z,71.68
2022-12-16T04:00:23.178Z,71.32
2022-12-16T04:04:26.749Z,71.45
2022-12-16T04:08:30.297Z,71.02
2022-12-16T04:12:52.393Z,71.22
2022-12-16T04:17:13.567Z,71.50
2022-12-16T04:21:33.795Z,71.31
2022-12-16T04:25:39.467Z,71.02
2022-12-16T04:29:57.788Z,70.96
2022-12-16T04:34:33.272Z,71.29
2022-12-16T04:38:53.648Z,71.26
2022-12-16T04:43:14.465Z,71.24
2022-12-16T04:47:36.684Z,71.67
2022-12-16T04:51:57.150Z,71.45
2022-12-16T04:56:17.875Z,71.70
2022-12-16T05:00:39.261Z,72.04
2022-12-16T05:05:01.399Z,72.03
2022-12-16T05:09:22.819Z,72.28
2022-12-16T05:13:43.270Z,72.99
2022-12-16T05:18:03.920Z,72.58
2022-12-16T05:22:25.790Z,72.38
2022-12-16T05:26:46.701Z,72.92
2022-12-16T05:31:07.007Z,72.86
2022-12-16T05:35:33.147Z,72.60
2022-12-16T05:39:55.502Z,73.06
2022-12-16T05:44:16.006Z,72.48
2022-12-16T05:48:36.509Z,73.19
2022-12-16T05:52:57.951Z,73.31
2022-12-16T05:57:20.048Z,73.13
2022-12-16T06:01:40.693Z,73.04
2022-12-16T06:06:35.216Z,73.42
2022-12-16T06:10:56.415Z,73.44
2022-12-16T06:15:18.587Z,72.73
2022-12-16T06:19:39.054Z,73.26
2022-12-16T06:23:59.236Z,73.04
2022-12-16T06:28:20.394Z,72.85
2022-12-16T06:32:42.523Z,73.52
2022-12-16T06:37:03.623Z,73.11
2022-12-16T06:41:24.623Z,73.17
2022-12-16T06:45:45.483Z,73.17
2022-12-16T06:50:07.715Z,73.29
2022-12-16T06:54:28.012Z,73.22
2022-12-16T06:58:49.061Z,73.16
2022-12-16T07:03:09.290Z,73.53
2022-12-16T07:07:33.379Z,73.75
2022-12-16T07:11:54.169Z,73.64
2022-12-16T07:16:14.679Z,73.39
2022-12-16T07:20:35.370Z,73.87
2022-12-16T07:24:57.119Z,73.83
2022-12-16T07:29:18.183Z,73.79
2022-12-16T07:33:38.575Z,73.63
2022-12-16T07:37:59.069Z,73.24
2022-12-16T07:42:20.760Z,73.28
2022-12-16T07:46:41.582Z,72.98
2022-12-16T07:51:01.900Z,72.86
2022-12-16T07:55:23.268Z,72.87
2022-12-16T07:59:45.166Z,72.88
2022-12-16T08:04:06.130Z,73.24
2022-12-16T08:08:35.047Z,73.05
2022-12-16T08:12:56.651Z,72.76
2022-12-16T08:17:19.211Z,72.77
2022-12-16T08:21:40.237Z,72.83
2022-12-16T08:26:01.129Z,72.58
2022-12-16T08:30:22.169Z,72.31
2022-12-16T08:34:43.808Z,72.22
2022-12-16T08:39:04.619Z,71.90
2022-12-16T08:43:25.449Z,72.24
2022-12-16T08:47:46.338Z,71.79
2022-12-16T08:52:08.679Z,71.72
2022-12-16T08:56:29.467Z,71.29
2022-12-16T09:00:52.695Z,71.69
2022-12-16T09:05:12.801Z,71.33
2022-12-16T09:09:34.912Z,71.29
2022-12-16T09:13:55.456Z,71.27
2022-12-16T09:18:16.283Z,71.13
2022-12-16T09:22:37.031Z,71.38
2022-12-16T09:26:59.314Z,70.24
2022-12-16T09:31:20.472Z,70.94
2022-12-16T09:35:41.063Z,70.01
2022-12-16T09:40:01.950Z,70.04
2022-12-16T09:44:34.828Z,70.28
2022-12-16T09:49:05.035Z,70.11
2022-12-16T09:53:31.116Z,69.94
2022-12-16T09:57:54.382Z,70.02
2022-12-16T10:02:18.828Z,69.57
2022-12-16T10:06:52.093Z,70.11
2022-12-16T10:11:15.507Z,71.62
2022-12-16T10:15:49.216Z,70.59
2022-12-16T10:20:19.422Z,70.83
2022-12-16T10:24:51.128Z,70.94
2022-12-16T10:29:21.965Z,70.68
2022-12-16T10:33:53.075Z,70.63
2022-12-16T10:38:15.745Z,70.12
2022-12-16T10:42:43.260Z,70.71
2022-12-16T10:47:04.229Z,69.90
2022-12-16T10:51:31.521Z,70.31
2022-12-16T10:56:06.326Z,70.75
2022-12-16T11:00:29.314Z,70.56
2022-12-16T11:04:54.269Z,70.44
2022-12-16T11:09:34.118Z,71.29
2022-12-16T11:13:56.763Z,70.42
2022-12-16T11:18:22.310Z,70.66
2022-12-16T11:22:43.018Z,70.33
2022-12-16T11:27:12.428Z,70.79
2022-12-16T11:31:35.849Z,70.62
2022-12-16T11:36:00.254Z,70.79
2022-12-16T11:40:27.181Z,69.95
2022-12-16T11:44:52.393Z,69.35
2022-12-16T11:49:24.689Z,70.13
2022-12-16T11:54:04.844Z,69.93
2022-12-16T11:58:36.612Z,68.88
2022-12-16T12:03:03.771Z,69.16
2022-12-16T12:07:44.827Z,69.65
2022-12-16T12:12:12.959Z,69.29
2022-12-16T12:16:39.046Z,69.08
2022-12-16T12:21:09.190Z,68.20
2022-12-16T12:25:41.296Z,68.92
2022-12-16T12:30:16.591Z,68.65
2022-12-16T12:34:47.863Z,68.67
2022-12-16T12:39:21.562Z,68.95
2022-12-16T12:44:14.675Z,68.86
2022-12-16T12:48:41.471Z,68.88
2022-12-16T12:53:21.032Z,69.20
2022-12-16T12:57:44.669Z,68.68
2022-12-16T13:02:10.075Z,68.26
2022-12-16T13:06:34.155Z,67.82
2022-12-16T13:10:56.556Z,68.12
2022-12-16T13:15:24.388Z,67.71
2022-12-16T13:20:04.270Z,67.70
2022-12-16T13:24:39.739Z,68.80
2022-12-16T13:29:11.992Z,68.81
2022-12-16T13:33:51.265Z,69.17
2022-12-16T13:38:15.449Z,68.44
2022-12-16T13:43:12.942Z,69.20
2022-12-16T13:47:49.081Z,68.94
2022-12-16T13:52:20.151Z,69.51
2022-12-16T13:56:48.692Z,69.58
2022-12-16T14:01:23.645Z,70.18
2022-12-16T14:05:47.891Z,70.28
2022-12-16T14:10:17.485Z,69.88
2022-12-16T14:14:44.718Z,70.31
2022-12-16T14:19:20.412Z,70.33
2022-12-16T14:23:58.849Z,70.82
2022-12-16T14:28:20.275Z,70.59
2022-12-16T14:32:46.946Z,70.86
2022-12-16T14:37:09.706Z,71.32
2022-12-16T14:41:31.402Z,72.20
2022-12-16T14:45:54.247Z,70.97
2022-12-16T14:50:16.728Z,71.59
2022-12-16T14:54:41.148Z,71.33
2022-12-16T14:59:13.325Z,71.34
2022-12-16T15:03:39.952Z,72.05
2022-12-16T15:08:03.183Z,71.87
2022-12-16T15:12:26.031Z,71.37
2022-12-16T15:16:57.026Z,72.49
2022-12-16T15:21:18.229Z,71.71
2022-12-16T15:25:43.230Z,71.87
2022-12-16T15:30:12.345Z,72.37
2022-12-16T15:34:40.992Z,72.07
2022-12-16T15:39:02.160Z,72.05
2022-12-16T15:43:24.026Z,72.08
2022-12-16T15:47:46.853Z,72.77
2022-12-16T15:52:08.552Z,72.99
2022-12-16T15:56:36.492Z,72.29
2022-12-16T16:00:58.769Z,72.47
2022-12-16T16:05:19.831Z,72.88
2022-12-16T16:09:41.793Z,72.48
2022-12-16T16:14:08.271Z,72.62
2022-12-16T16:18:32.800Z,72.62
2022-12-16T16:22:53.570Z,72.58
2022-12-16T16:27:15.713Z,72.92
2022-12-16T16:31:36.439Z,73.14
2022-12-16T16:35:58.911Z,72.91
2022-12-16T16:40:20.674Z,73.25
2022-12-16T16:44:40.601Z,73.44
2022-12-16T16:49:02.078Z,72.85
2022-12-16T16:53:23.807Z,72.77
2022-12-16T16:57:45.750Z,72.52
2022-12-16T17:02:06.255Z,72.36
2022-12-16T17:06:27.158Z,71.98
2022-12-16T17:10:49.226Z,72.12
2022-12-16T17:15:09.604Z,72.46
2022-12-16T17:19:29.871Z,72.45
2022-12-16T17:23:50.935Z,72.75
2022-12-16T17:28:09.326Z,73.06
2022-12-16T17:32:30.767Z,72.79
2022-12-16T17:36:51.468Z,72.89
2022-12-16T17:41:12.587Z,72.41
2022-12-16T17:45:34.400Z,72.68
2022-12-16T17:49:55.109Z,72.97
2022-12-16T17:54:23.915Z,72.53
2022-12-16T17:58:50.325Z,72.68
2022-12-16T18:03:12.570Z,73.33
2022-12-16T18:07:33.126Z,72.84
2022-12-16T18:11:54.104Z,72.85
2022-12-16T18:16:15.116Z,72.86
2022-12-16T18:20:37.327Z,72.80
2022-12-16T18:24:57.804Z,72.55
2022-12-16T18:29:18.337Z,72.73
2022-12-16T18:33:38.442Z,72.77
2022-12-16T18:38:00.792Z,73.10
2022-12-16T18:42:21.501Z,72.72
2022-12-16T18:46:44.706Z,72.54
2022-12-16T18:51:12.233Z,72.81
2022-12-16T18:55:34.525Z,72.68
2022-12-16T18:59:56.310Z,73.09
2022-12-16T19:04:17.321Z,72.69
2022-12-16T19:08:38.813Z,72.22
2022-12-16T19:13:00.597Z,72.62
2022-12-16T19:17:21.884Z,72.37
2022-12-16T19:21:46.904Z,72.34
2022-12-16T19:26:16.090Z,72.66
2022-12-16T19:30:44.632Z,72.76
2022-12-16T19:35:18.326Z,72.35
2022-12-16T19:39:40.429Z,72.08
2022-12-16T19:48:45.855Z,72.02
2022-12-16T19:53:06.897Z,72.50
2022-12-16T19:57:28.179Z,72.30
2022-12-16T20:01:49.159Z,72.06
2022-12-16T20:06:20.283Z,72.23
2022-12-16T20:10:41.692Z,71.87
2022-12-16T20:15:01.942Z,72.18
2022-12-16T20:19:22.790Z,72.20
2022-12-16T20:23:44.848Z,72.37
2022-12-16T20:28:05.738Z,72.57
2022-12-16T20:32:26.754Z,72.19
2022-12-16T20:36:46.877Z,72.38
2022-12-16T20:41:16.505Z,72.71
2022-12-16T20:45:38.547Z,72.33
2022-12-16T20:49:59.545Z,72.14
2022-12-16T20:54:20.432Z,72.32
2022-12-16T20:58:42.764Z,71.75
2022-12-16T21:03:03.316Z,72.00
2022-12-16T21:07:38.853Z,72.16
2022-12-16T21:11:59.446Z,71.86
2022-12-16T21:16:23.852Z,72.23
2022-12-16T21:20:44.207Z,72.33
2022-12-16T21:25:04.907Z,72.08
2022-12-16T21:29:25.796Z,72.22
2022-12-16T21:33:48.203Z,72.03
2022-12-16T21:38:10.695Z,72.25
2022-12-16T21:42:35.077Z,72.26
2022-12-16T21:47:00.731Z,71.83
2022-12-16T21:51:22.918Z,72.09
2022-12-16T21:55:52.990Z,72.02
2022-12-16T22:00:15.833Z,72.22
2022-12-16T22:04:40.082Z,72.30
2022-12-16T22:09:06.323Z,72.44
2022-12-16T22:13:27.035Z,72.17
2022-12-16T22:18:01.950Z,72.35
2022-12-16T22:22:22.613Z,72.61
2022-12-16T22:26:45.081Z,72.86
2022-12-16T22:31:15.810Z,72.61
2022-12-16T22:35:36.942Z,73.17
2022-12-16T22:39:57.290Z,72.78
2022-12-16T22:44:21.610Z,72.81
2022-12-16T22:48:42.033Z,72.22
2022-12-16T22:53:02.757Z,71.75
2022-12-16T22:57:23.646Z,72.29
2022-12-16T23:01:46.061Z,72.02
2022-12-16T23:06:06.368Z,72.14
2022-12-16T23:10:27.649Z,72.59
2022-12-16T23:14:48.344Z,72.13
2022-12-16T23:19:11.312Z,72.75
2022-12-16T23:23:31.954Z,72.52
2022-12-16T23:27:52.545Z,72.76
2022-12-16T23:32:14.380Z,72.49
2022-12-16T23:36:36.051Z,72.68
2022-12-16T23:40:56.634Z,72.51
2022-12-16T23:45:17.454Z,73.10
2022-12-16T23:49:38.108Z,72.57
2022-12-16T23:54:05.317Z,73.14
2022-12-16T23:58:25.984Z,72.49
